createdAt,value
2023-04-16T00:01:15.085Z,65.50
2023-04-16T00:06:19.742Z,65.40
2023-04-16T00:11:23.706Z,65.60
2023-04-16T00:16:27.032Z,65.60
2023-04-16T00:21:32.224Z,65.80
2023-04-16T00:26:35.506Z,65.80
2023-04-16T00:31:39.580Z,65.80
2023-04-16T00:36:44.223Z,65.80
2023-04-16T00:41:49.274Z,65.70
2023-04-16T00:46:52.780Z,65.60
2023-04-16T00:51:57.690Z,65.60
2023-04-16T00:57:01.715Z,65.60
2023-04-16T01:02:05.150Z,65.60
2023-04-16T01:07:10.009Z,65.50
2023-04-16T01:12:13.891Z,65.50
2023-04-16T01:17:17.160Z,65.40
2023-04-16T01:22:21.882Z,65.40
2023-04-16T01:27:25.164Z,65.40
2023-04-16T01:32:28.332Z,65.40
2023-04-16T01:37:34.536Z,65.40
2023-04-16T01:42:38.323Z,65.40
2023-04-16T01:47:42.069Z,65.40
2023-04-16T01:52:47.543Z,65.40
2023-04-16T01:57:50.919Z,65.30
2023-04-16T02:02:55.113Z,65.30
2023-04-16T02:08:04.509Z,65.40
2023-04-16T02:13:08.108Z,65.40
2023-04-16T02:18:11.519Z,65.40
2023-04-16T02:23:16.459Z,65.50
2023-04-16T02:28:20.273Z,65.60
2023-04-16T02:33:26.229Z,65.60
2023-04-16T02:38:37.600Z,65.60
2023-04-16T02:43:40.898Z,65.60
2023-04-16T02:48:44.945Z,65.60
2023-04-16T02:53:49.600Z,65.60
2023-04-16T02:58:52.845Z,65.80
2023-04-16T03:03:56.687Z,65.80
2023-04-16T03:09:01.368Z,65.90
2023-04-16T03:14:04.635Z,66.00
2023-04-16T03:19:08.184Z,66.00
2023-04-16T03:24:14.551Z,66.00
2023-04-16T03:29:17.779Z,66.10
2023-04-16T03:34:21.444Z,66.50
2023-04-16T03:39:26.812Z,66.10
2023-04-16T03:44:30.347Z,66.10
2023-04-16T03:49:33.964Z,66.10
2023-04-16T03:54:39.161Z,66.20
2023-04-16T03:59:54.903Z,66.40
2023-04-16T04:04:59.087Z,66.40
2023-04-16T04:10:04.061Z,66.50
2023-04-16T04:15:13.721Z,66.70
2023-04-16T04:20:19.385Z,66.60
2023-04-16T04:25:25.700Z,66.70
2023-04-16T04:30:29.357Z,66.80
2023-04-16T04:35:32.824Z,66.70
2023-04-16T04:40:38.407Z,66.90
2023-04-16T04:45:42.964Z,67.00
2023-04-16T04:50:47.035Z,66.90
2023-04-16T04:55:55.659Z,67.80
2023-04-16T05:01:01.548Z,66.90
2023-04-16T05:06:05.048Z,66.80
2023-04-16T05:11:09.664Z,66.80
2023-04-16T05:16:12.962Z,66.90
2023-04-16T05:21:18.594Z,66.70
2023-04-16T05:26:23.529Z,66.70
2023-04-16T05:31:29.431Z,66.70
2023-04-16T05:36:32.582Z,67.60
2023-04-16T05:41:37.121Z,66.70
2023-04-16T05:46:40.354Z,66.80
2023-04-16T05:51:43.632Z,66.80
2023-04-16T05:56:48.593Z,66.90
2023-04-16T06:01:51.958Z,66.90
2023-04-16T06:06:55.627Z,66.90
2023-04-16T06:12:01.159Z,66.90
2023-04-16T06:17:04.331Z,67.10
2023-04-16T06:22:07.724Z,67.10
2023-04-16T06:27:12.407Z,67.30
2023-04-16T06:32:17.435Z,67.40
2023-04-16T06:37:21.080Z,67.40
2023-04-16T06:42:25.767Z,67.50
2023-04-16T06:47:29.085Z,67.50
2023-04-16T06:52:32.433Z,67.50
2023-04-16T06:57:37.570Z,67.50
2023-04-16T07:02:41.192Z,67.60
2023-04-16T07:07:44.527Z,67.50
2023-04-16T07:12:49.175Z,67.40
2023-04-16T07:17:52.653Z,67.40
2023-04-16T07:22:56.020Z,67.30
2023-04-16T07:28:00.595Z,68.20
2023-04-16T07:33:04.819Z,67.20
2023-04-16T07:38:08.046Z,67.10
2023-04-16T07:43:13.562Z,67.00
2023-04-16T07:48:16.756Z,67.00
2023-04-16T07:53:20.211Z,67.00
2023-04-16T07:58:24.761Z,66.80
2023-04-16T08:03:28.405Z,66.50
2023-04-16T08:08:32.211Z,66.50
2023-04-16T08:13:37.156Z,66.40
2023-04-16T08:18:40.412Z,66.20
2023-04-16T08:23:43.683Z,65.90
2023-04-16T08:28:48.459Z,65.80
2023-04-16T08:33:51.647Z,65.60
2023-04-16T08:38:54.883Z,65.80
2023-04-16T08:44:06.064Z,65.60
2023-04-16T08:49:10.095Z,65.40
2023-04-16T08:54:18.621Z,65.20
2023-04-16T08:59:23.740Z,64.90
2023-04-16T09:04:28.919Z,64.90
2023-04-16T09:09:34.557Z,65.00
2023-04-16T09:14:41.931Z,64.80
2023-04-16T09:19:45.323Z,64.60
2023-04-16T09:24:48.615Z,66.70
2023-04-16T09:29:53.589Z,70.30
2023-04-16T09:34:59.657Z,69.60
2023-04-16T09:40:04.676Z,67.70
2023-04-16T09:45:10.607Z,65.80
2023-04-16T09:50:18.273Z,63.90
2023-04-16T09:55:24.916Z,63.20
2023-04-16T10:00:30.794Z,62.30
2023-04-16T10:05:34.144Z,62.10
2023-04-16T10:10:37.563Z,62.00
2023-04-16T10:15:42.640Z,61.70
2023-04-16T10:20:46.583Z,61.10
2023-04-16T10:25:50.465Z,61.40
2023-04-16T10:30:56.078Z,61.50
2023-04-16T10:36:10.936Z,61.30
2023-04-16T10:41:14.255Z,60.60
2023-04-16T10:46:24.430Z,62.00
2023-04-16T10:51:31.495Z,61.60
2023-04-16T10:56:36.194Z,62.00
2023-04-16T11:01:43.948Z,63.10
2023-04-16T11:07:05.579Z,61.30
2023-04-16T11:12:11.647Z,60.30
2023-04-16T11:17:16.718Z,61.40
2023-04-16T11:22:20.357Z,61.00
2023-04-16T11:27:24.308Z,60.80
2023-04-16T11:32:29.102Z,60.80
2023-04-16T11:37:36.402Z,60.50
2023-04-16T11:42:41.044Z,59.50
2023-04-16T11:47:47.372Z,59.90
2023-04-16T11:52:51.460Z,59.40
2023-04-16T11:57:54.802Z,59.30
2023-04-16T12:02:59.977Z,58.90
2023-04-16T12:08:04.892Z,58.40
2023-04-16T12:13:13.597Z,58.20
2023-04-16T12:18:19.078Z,62.40
2023-04-16T12:23:27.220Z,63.40
2023-04-16T12:28:31.913Z,63.50
2023-04-16T12:33:36.538Z,63.20
2023-04-16T12:38:39.977Z,62.50
2023-04-16T12:43:43.447Z,59.90
2023-04-16T12:48:49.852Z,58.40
2023-04-16T12:53:53.594Z,57.20
2023-04-16T12:58:58.740Z,56.70
2023-04-16T13:04:06.152Z,56.20
2023-04-16T13:09:10.464Z,55.10
2023-04-16T13:14:14.264Z,55.50
2023-04-16T13:19:19.249Z,55.60
2023-04-16T13:24:23.669Z,55.20
2023-04-16T13:29:27.140Z,55.20
2023-04-16T13:34:34.283Z,55.20
2023-04-16T13:39:37.636Z,54.90
2023-04-16T13:44:41.206Z,55.10
2023-04-16T13:49:48.071Z,55.20
2023-04-16T13:54:51.749Z,55.00
2023-04-16T13:59:57.791Z,55.50
2023-04-16T14:05:02.524Z,55.50
2023-04-16T14:10:06.918Z,55.50
2023-04-16T14:15:11.317Z,55.60
2023-04-16T14:20:16.138Z,55.50
2023-04-16T14:25:19.632Z,55.40
2023-04-16T14:30:23.463Z,55.60
2023-04-16T14:35:29.275Z,55.70
2023-04-16T14:40:33.221Z,55.80
2023-04-16T14:45:39.198Z,55.70
2023-04-16T14:50:44.946Z,55.70
2023-04-16T14:55:49.283Z,55.60
2023-04-16T15:00:52.864Z,55.80
2023-04-16T15:05:59.359Z,56.00
2023-04-16T15:11:04.181Z,56.10
2023-04-16T15:16:11.570Z,56.10
2023-04-16T15:21:18.546Z,56.10
2023-04-16T15:26:23.627Z,56.00
2023-04-16T15:31:32.894Z,56.30
2023-04-16T15:36:39.542Z,56.50
2023-04-16T15:41:59.907Z,56.40
2023-04-16T15:47:06.399Z,56.40
2023-04-16T15:52:13.130Z,56.40
2023-04-16T15:57:17.023Z,56.30
2023-04-16T16:02:20.988Z,56.60
2023-04-16T16:07:26.724Z,56.60
2023-04-16T16:12:31.627Z,56.70
2023-04-16T16:17:36.740Z,56.80
2023-04-16T16:22:45.289Z,56.80
2023-04-16T16:27:49.379Z,56.90
2023-04-16T16:32:53.892Z,57.00
2023-04-16T16:37:59.963Z,57.10
2023-04-16T16:43:05.130Z,57.20
2023-04-16T16:48:10.569Z,57.40
2023-04-16T16:53:15.382Z,57.70
2023-04-16T16:58:19.437Z,57.70
2023-04-16T17:03:23.195Z,57.90
2023-04-16T17:08:29.456Z,58.10
2023-04-16T17:13:35.304Z,58.20
2023-04-16T17:18:40.291Z,58.50
2023-04-16T17:23:48.713Z,58.60
2023-04-16T17:28:53.711Z,58.90
2023-04-16T17:33:59.572Z,58.80
2023-04-16T17:39:05.405Z,58.80
2023-04-16T17:44:11.592Z,59.00
2023-04-16T17:49:16.396Z,58.90
2023-04-16T17:54:23.129Z,59.10
2023-04-16T17:59:28.022Z,59.30
2023-04-16T18:04:31.960Z,59.30
2023-04-16T18:09:39.173Z,59.40
2023-04-16T18:14:45.286Z,59.60
2023-04-16T18:19:51.218Z,59.70
2023-04-16T18:24:56.881Z,59.80
2023-04-16T18:30:01.707Z,60.10
2023-04-16T18:35:05.916Z,60.10
2023-04-16T18:40:13.676Z,60.20
2023-04-16T18:45:21.871Z,60.40
2023-04-16T18:50:28.744Z,60.30
2023-04-16T18:55:34.890Z,60.40
2023-04-16T19:00:40.559Z,60.90
2023-04-16T19:05:45.319Z,60.90
2023-04-16T19:10:50.982Z,61.30
2023-04-16T19:16:01.306Z,61.70
2023-04-16T19:21:06.270Z,62.00
2023-04-16T19:26:15.578Z,61.90
2023-04-16T19:31:18.941Z,62.30
2023-04-16T19:36:25.585Z,62.00
2023-04-16T19:41:31.540Z,62.10
2023-04-16T19:46:35.580Z,62.30
2023-04-16T19:51:40.723Z,62.30
2023-04-16T19:56:46.287Z,62.40
2023-04-16T20:01:52.411Z,62.60
2023-04-16T20:06:58.888Z,62.50
2023-04-16T20:12:04.685Z,62.50
2023-04-16T20:17:10.081Z,62.70
2023-04-16T20:22:15.046Z,62.60
2023-04-16T20:27:20.662Z,62.80
2023-04-16T20:32:26.693Z,63.00
2023-04-16T20:37:31.308Z,63.00
2023-04-16T20:42:36.181Z,63.10
2023-04-16T20:47:39.987Z,63.40
2023-04-16T20:52:43.692Z,63.30
2023-04-16T20:57:48.362Z,63.50
2023-04-16T21:02:51.851Z,63.60
2023-04-16T21:07:56.719Z,63.60
2023-04-16T21:13:01.521Z,63.70
2023-04-16T21:18:05.040Z,63.90
2023-04-16T21:23:08.652Z,63.90
2023-04-16T21:28:13.402Z,63.90
2023-04-16T21:33:17.203Z,64.00
2023-04-16T21:38:20.596Z,64.00
2023-04-16T21:43:25.544Z,64.00
2023-04-16T21:48:28.856Z,64.30
2023-04-16T21:53:32.413Z,64.20
2023-04-16T21:58:37.054Z,64.30
2023-04-16T22:03:40.943Z,64.50
2023-04-16T22:08:44.274Z,64.50
2023-04-16T22:13:49.584Z,64.60
2023-04-16T22:18:54.956Z,64.70
2023-04-16T22:23:58.297Z,64.60
2023-04-16T22:29:03.129Z,64.50
2023-04-16T22:34:06.460Z,64.70
2023-04-16T22:39:10.076Z,64.50
2023-04-16T22:44:15.062Z,64.70
2023-04-16T22:49:18.263Z,64.70
2023-04-16T22:54:21.546Z,64.60
2023-04-16T22:59:26.586Z,64.60
2023-04-16T23:04:29.925Z,64.90
2023-04-16T23:09:34.704Z,64.70
2023-04-16T23:14:39.543Z,64.80
2023-04-16T23:19:42.808Z,64.90
2023-04-16T23:24:45.986Z,65.00
2023-04-16T23:29:51.082Z,65.10
2023-04-16T23:34:54.497Z,65.40
2023-04-16T23:39:57.786Z,65.20
2023-04-16T23:45:02.375Z,65.30
2023-04-16T23:50:06.946Z,65.50
2023-04-16T23:55:10.563Z,65.50
